Tiempo atmosférico en la estación meteorológica de Reinosa, Cantabria (875 m.)



Fecha
DESCASC
Temp. máxima en grados centígrados (hora)
DESCASC
Temp. mínima en grados centígrados (hora)
DESCASC
Temp. media en grados centígrados
DESCASC
Racha de viento máxima en m/sg (hora)
DESCASC
Velocidad máxima media en intervalos de 10 minutos(hora)
DESCASC
Precipitaciones diarias en mm
DESCASC
Precipitaciones de 00:00 a 06:00 en mm
DESCASC
Precipitaciones de 06:00 a 12:00 en mm
DESCASC
Precipitaciones de 12:00 a 18:00 en mm
DESCASC
Precipitaciones de 18:00 a 24:00 en mm
DESCASC
22-01-2020 5.6 (14:00) 0.6 (23:59) 3.1 12.5 (00:10) 5.83 (03:50) 0.1 0 0.1 0 0
21-01-2020 3.2 (23:30) 0.2 (04:20) 1.7 12.78 (15:30) 6.39 (14:00) 0.5 0 0 0.5 0
20-01-2020 1.2 (12:20) -1 (06:00) 0.1 16.11 (00:30) 8.33 (04:40) 0.4 0.3 0.1 0 0
19-01-2020 4.5 (01:50) 0.3 (00:00) 2.4 18.06 (12:30) 10 (12:40) 8 4.1 3.3 0.5 0.1
18-01-2020 9.6 (16:10) 1.5 (00:00) 5.6 12.22 (12:20) 7.22 (17:00) 2.6 0 0 2.6 0
17-01-2020 8.1 (15:40) 1.4 (00:00) 4.8 15.56 (00:20) 8.61 (00:20) 1.1 1.1 0 0 0
16-01-2020 11.2 (15:50) 6.7 (00:00) 8.9 21.67 (17:40) 11.39 (08:50) 1.1 0 0 0 1.1
15-01-2020 10.5 (15:50) 6.2 (00:00) 8.3 22.22 (06:30) 10.28 (07:00) 3 1.9 1 0.1 0
14-01-2020 8.9 (14:20) 2.5 (00:00) 5.7 18.61 (09:10) 11.67 (09:10) 0.3 0 0 0 0.3
13-01-2020 8.6 (16:20) -5.1 (-00:0) 1.8 14.44 (23:10) 9.17 (23:10) 0 0 0 0 0
12-01-2020 10.8 (14:40) -5.4 (-00:0) 2.7 5.28 (15:10) 3.61 (14:50) 0 0 0 0 0
11-01-2020 10.5 (16:10) -5.4 (-00:0) 2.5 3.61 (14:20) 1.94 (00:50) 0 0 0 0 0
10-01-2020 6.5 (15:10) -0.4 (00:00) 3 9.72 (11:50) 5.56 (11:30) 1 0 0 0.5 0.5
09-01-2020 12 (12:30) -0.6 (-00:0) 5.7 13.61 (14:00) 9.72 (13:40) 0 0 0 0 0
08-01-2020 15.1 (14:50) -2 (-00:0) 6.6 3.33 (16:50) 2.78 (16:50) 0 0 0 0 0
07-01-2020 13.5 (15:10) -3.6 (-00:0) 5 3.33 (13:00) 2.5 (19:00) 0 0 0 0 0
06-01-2020 10.1 (14:50) -4.9 (-00:0) 2.6 3.89 (00:30) 2.22 (03:00) 0 0 0 0 0
05-01-2020 14.3 (14:40) -2.4 (-00:0) 6 4.17 (01:10) 3.33 (01:00) 0 0 0 0 0
04-01-2020 7.3 (12:30) -0.6 (-00:0) 3.4 6.67 (14:30) 5 (12:20) 0 0 0 0 0
03-01-2020 5.6 (14:30) -2.2 (-00:0) 1.7 3.89 (12:10) 2.22 (04:10) 0 0 0 0 0
02-01-2020 9.8 (14:00) -4.6 (-00:0) 2.6 10 (16:10) 6.67 (16:00) 0 0 0 0 0
01-01-2020 11.5 (14:40) -5.4 (-00:0) 3 2.5 (20:50) 1.67 (19:50) 0 0 0 0 0
31-12-2019 12.7 (15:20) -3.9 (-00:0) 4.4 3.06 (16:20) 2.5 (16:10) 0 0 0 0 0
30-12-2019 16.8 (16:20) -1.8 (-00:0) 7.5 3.33 (04:50) 2.22 (04:30) 0 0 0 0 0
29-12-2019 15.1 (15:40) -4.5 (-00:0) 5.3 4.72 (20:20) 3.61 (20:20) 0 0 0 0 0
28-12-2019 15.2 (15:50) -3.6 (-00:0) 5.8 4.44 (07:40) 3.33 (07:40) 0 0 0 0 0
27-12-2019 12.8 (16:00) -6.6 (-00:0) 3.1 4.17 (19:30) 3.06 (19:20) 0 0 0 0 0
26-12-2019 10.8 (00:30) -1.2 (-00:0) 4.8 10 (00:10) 6.11 (00:10) 0 0 0 0 0
25-12-2019 16.6 (15:00) 3.1 (00:00) 9.9 12.22 (23:20) 8.33 (23:20) 0 0 0 0 0

Gráficas

Temp. máximas Temp. mínimas Temp. medias Precipitaciones Rachas de viento máximas Velocidades máximas media en intervalos de 10 minutos

Datos horarios

Fecha y hora oficial Temperatura (ºC) Velocidad del viento (km/h) Dirección del viento Racha (km/h) Dirección de racha Precipitación (mm) Presión (hPa) Tendencia (hPa) Humedad (%)
2020-01-23 23:00:00 2.8 12 Sur 23 Sur 0 918.1 1 89
2020-01-23 22:00:00 2.5 5 Este 9 Este 0 917.6 1 93
2020-01-23 21:00:00 2.6 3 Este 12 Este 0 917.6 1.4 90
2020-01-23 20:00:00 2.9 4 Nordeste 7 Nordeste 0 917.1 1.5 86
2020-01-23 19:00:00 4.4 3 Sudoeste 13 Sur 0 916.6 1.2 76
2020-01-23 18:00:00 5.6 0 Calma 9 Nordeste 0 916.2 0.3 78
2020-01-23 17:00:00 6.3 0 Calma 9 Este 0 915.6 -1.3 79
2020-01-23 16:00:00 6.2 7 Nordeste 14 Nordeste 0 915.4 -2.3 78
2020-01-23 15:00:00 6.8 5 Sudoeste 11 Sur 0 915.9 -2.5 72
2020-01-23 14:00:00 5.5 4 Nordeste 9 Nordeste 0 916.9 -1.2 78
2020-01-23 13:00:00 4.2 2 Sudeste 10 Norte 0 917.7 -0.8 85
2020-01-23 12:00:00 3.2 0 Calma 7 Oeste 0 918.4 0.1 92
2020-01-23 11:00:00 1.2 7 Sur 10 Sur 0 918.1 -0.1 95
2020-01-23 10:00:00 0.5 3 Sudoeste 8 Sur 0 918.5 1.2 95
2020-01-23 09:00:00 -0.3 3 Oeste 7 Sudoeste 0 918.3 1.2 95
2020-01-23 08:00:00 -1.6 0 Calma 5 Noroeste 0 918.2 0.7 95
2020-01-23 07:00:00 -1.7 4 Noroeste 7 Este 0 917.3 -0.6 95
2020-01-23 06:00:00 -1.7 2 Noroeste 6 Oeste 0 917.1 -0.7 95
2020-01-23 05:00:00 -1 4 Oeste 7 Sudoeste 0 917.5 -1 95
2020-01-23 04:00:00 -0.1 3 Sudeste 7 Sudeste 0 917.9 -0.6 95
2020-01-23 03:00:00 -0.2 4 Oeste 6 Sur 0 917.8 -1 95
2020-01-23 02:00:00 0 6 Sur 10 Sur 0 918.5 -0.1 95
2020-01-23 01:00:00 0 2 Noroeste 7 Sudeste 0 918.5 -0.4 95
2020-01-23 00:00:00 0.7 0 Calma 7 Sur 0 918.8 -0.2 95
2020-01-22 23:00:00 1.8 0 Calma 11 Oeste 0 918.6 -0.1 95
2020-01-22 22:00:00 2.9 5 Oeste 10 Este 0 918.9 0.4 95
2020-01-22 21:00:00 3.4 0 Calma 5 Este 0 919 0.5 93
2020-01-22 20:00:00 3.7 2 Sudeste 4 Sudeste 0 918.7 0.2 92
2020-01-22 19:00:00 3.8 4 Oeste 16 Este 0 918.5 -0.1 91
2020-01-22 18:00:00 3.9 7 Nordeste 15 Este 0 918.5 -0.8 94
2020-01-22 17:00:00 4.6 8 Nordeste 18 Este 0 918.5 -1.9 90
2020-01-22 16:00:00 5.2 8 Este 12 Este 0 918.6 -2.7 88
2020-01-22 15:00:00 5.4 2 Nordeste 10 Sudeste 0 919.3 -2.2 86
2020-01-22 14:00:00 5.4 0 Calma 7 Nordeste 0 920.4 -1.4 84
2020-01-22 13:00:00 4.5 4 Nordeste 10 Este 0 921.3 -0.4 92
2020-01-22 12:00:00 4.2 6 Este 18 Noroeste 0 921.5 0 93
2020-01-22 11:00:00 3.8 13 Noroeste 21 Noroeste 0 921.8 0.7 94
2020-01-22 10:00:00 3.5 0 Calma 15 Norte 0.1 921.7 0.7 93
2020-01-22 09:00:00 3.3 2 Norte 18 Noroeste 0 921.5 -0.3 92
2020-01-22 08:00:00 3.5 8 Norte 16 Noroeste 0 921.1 -1.1 93
2020-01-22 07:00:00 3.6 5 Norte 27 Nordeste 0 921 -1.3 93
2020-01-22 06:00:00 3.7 12 Norte 30 Norte 0 921.8 -1 93
2020-01-22 05:00:00 3.8 8 Norte 41 Norte 0 922.2 -1 93
2020-01-22 04:00:00 3.8 19 Norte 33 Norte 0 922.3 -2 92
2020-01-22 03:00:00 3.5 18 Norte 28 Norte 0 922.8 -1.4 92
2020-01-22 02:00:00 3.4 9 Norte 34 Norte 0 923.2 -1.5 92
2020-01-22 01:00:00 3.5 11 Norte 45 Nordeste 0 924.3 -0.2 92
2020-01-22 00:00:00 3.1 18 Norte 41 Norte 0 924.2 -0.8 91
2020-01-21 23:00:00 3.1 13 Norte 36 Noroeste 0 924.7 -0.6 91
2020-01-21 22:00:00 2.7 12 Norte 29 Norte 0 924.5 -0.3 91
2020-01-21 21:00:00 2.2 8 Norte 25 Norte 0 925 0.2 87
2020-01-21 20:00:00 1.5 11 Norte 26 Noroeste 0 925.3 0.2 91
2020-01-21 19:00:00 1.4 14 Norte 30 Norte 0 924.8 -0.3 90
2020-01-21 18:00:00 1.6 6 Norte 37 Norte 0 924.8 0.3 90
2020-01-21 17:00:00 1.4 14 Norte 37 Norte 0 925.1 -1 93
2020-01-21 16:00:00 0.9 14 Norte 46 Nordeste 0 925.1 -0.8 93
2020-01-21 15:00:00 1.3 15 Noroeste 39 Norte 0.5 924.5 -2.4 89
2020-01-21 14:00:00 1.4 23 Norte 38 Nordeste 0 926.1 -1.1 84
2020-01-21 13:00:00 2.1 13 Noroeste 33 Noroeste 0 925.9 -1.5 79
2020-01-21 12:00:00 1.5 19 Norte 32 Norte 0 926.9 -0.7 76
2020-01-21 11:00:00 1.7 18 Norte 35 Norte 0 927.2 -0.4 74
2020-01-21 10:00:00 1.5 12 Norte 35 Norte 0 927.4 -0.1 72
2020-01-21 09:00:00 1.3 19 Norte 40 Norte 0 927.6 -0.4 73
2020-01-21 08:00:00 1.2 18 Norte 39 Noroeste 0 927.6 -0.6 75
2020-01-21 07:00:00 0.7 21 Noroeste 37 Noroeste 0 927.5 -1.1 77
2020-01-21 06:00:00 0.7 13 Norte 25 Norte 0 928 -1.1 76
2020-01-21 05:00:00 0.5 13 Norte 32 Norte 0 928.2 -1.3 74
2020-01-21 04:00:00 0.5 10 Norte 27 Noroeste 0 928.6 -1.2 78
2020-01-21 03:00:00 0.7 15 Norte 31 Norte 0 929.1 -0.7 76
2020-01-21 02:00:00 0.7 15 Norte 39 Norte 0 929.5 -0.5 76
2020-01-21 01:00:00 0.7 16 Norte 39 Norte 0 929.8 -0.4 78
2020-01-21 00:00:00 0.4 18 Norte 34 Norte 0 929.8 -0.5 84
2020-01-20 23:00:00 0.1 14 Norte 30 Norte 0 930 -0.2 89
2020-01-20 22:00:00 -0.5 15 Noroeste 40 Norte 0 930.2 0.4 89
2020-01-20 21:00:00 -0.7 14 Norte 31 Norte 0 930.3 0.9 86
2020-01-20 20:00:00 -0.5 18 Norte 35 Norte 0 930.2 1.1 84
2020-01-20 19:00:00 -0.3 23 Norte 33 Norte 0 929.8 0.4 76
2020-01-20 18:00:00 -0.1 22 Norte 33 Norte 0 929.4 0.4 75
2020-01-20 17:00:00 -0.1 18 Norte 32 Norte 0 929.1 -0.2 76
2020-01-20 16:00:00 0.4 19 Norte 37 Norte 0 929.4 -0.9 72
2020-01-20 15:00:00 0.5 21 Norte 37 Noroeste 0 929 -2 72
2020-01-20 14:00:00 0.5 22 Norte 39 Norte 0 929.3 -1.5 75
2020-01-20 13:00:00 0.2 24 Norte 38 Norte 0 930.3 -0.5 69
2020-01-20 12:00:00 0.3 22 Norte 45 Norte 0 931 0.5 64
2020-01-20 11:00:00 -0.5 21 Norte 40 Norte 0 930.8 0.8 70
2020-01-20 10:00:00 -0.8 17 Norte 47 Norte 0 930.8 0.9 72
2020-01-20 09:00:00 -0.7 20 Norte 45 Norte 0.1 930.5 0.1 73
2020-01-20 08:00:00 -0.7 21 Norte 53 Nordeste 0 930 0.1 72
2020-01-20 07:00:00 -0.7 21 Nordeste 41 Nordeste 0 929.9 -0.7 82
2020-01-20 06:00:00 -0.7 15 Nordeste 45 Norte 0.1 930.4 -0.6 83
2020-01-20 05:00:00 -0.7 22 Norte 55 Norte 0 929.9 -2.1 78
2020-01-20 04:00:00 -0.4 22 Norte 50 Norte 0 930.6 -1.5 78
2020-01-20 03:00:00 -0.1 27 Norte 51 Norte 0.1 931 -1.1 73
2020-01-20 02:00:00 0.1 22 Norte 48 Norte 0.1 932 0.2 76
2020-01-20 01:00:00 0.1 21 Nordeste 58 Norte 0 932.1 0.4 78
2020-01-20 00:00:00 0.4 24 Norte 57 Norte 0 932.1 0.5 71
2020-01-19 23:00:00 0.5 24 Norte 54 Nordeste 0 931.8 0.8 73
2020-01-19 22:00:00 0.8 21 Nordeste 60 Norte 0 931.7 1.4 76
2020-01-19 21:00:00 1.2 21 Norte 54 Nordeste 0 931.6 1.4 72
2020-01-19 20:00:00 1.3 23 Norte 59 Norte 0 931 0.6 71
2020-01-19 19:00:00 1.1 27 Norte 65 Nordeste 0.1 930.3 0.1 69
2020-01-19 18:00:00 1.3 23 Norte 54 Nordeste 0 930.2 0 69
2020-01-19 17:00:00 1.7 25 Norte 49 Norte 0 930.4 0.2 66
2020-01-19 16:00:00 2.2 18 Norte 55 Norte 0 930.2 0 65
2020-01-19 15:00:00 2.1 24 Norte 54 Norte 0 930.2 0.4 70
2020-01-19 14:00:00 2.3 24 Norte 55 Norte 0.2 930.2 1.1 72
2020-01-19 13:00:00 3.4 27 Norte 65 Norte 0.3 930.2 2.2 70
2020-01-19 12:00:00 1.9 28 Norte 53 Norte 0.3 929.8 2.6 78
2020-01-19 11:00:00 2.7 32 Norte 59 Norte 0 929.1 3.4 70
2020-01-19 10:00:00 2.4 33 Norte 54 Norte 0 928 3.6 76
2020-01-19 09:00:00 2.6 22 Norte 46 Norte 0.1 927.2 3.5 78
2020-01-19 08:00:00 2.7 24 Norte 53 Norte 1.3 925.7 3.3 90
2020-01-19 07:00:00 2.6 16 Norte 43 Norte 1.6 924.4 3.1 91
2020-01-19 06:00:00 2.7 11 Norte 45 Nordeste 1.1 923.7 2.7 91
2020-01-19 05:00:00 3 24 Nordeste 51 Nordeste 1.6 922.4 1.8 93
2020-01-19 04:00:00 3.8 19 Nordeste 40 Norte 1.2 921.3 0.7 91
2020-01-19 03:00:00 4.2 21 Noroeste 41 Norte 0.1 921 1.1 89
2020-01-19 02:00:00 4.1 17 Noroeste 29 Noroeste 0 920.6 1.2 87
2020-01-19 01:00:00 2.8 2 Noroeste 13 Noroeste 0.1 920.6 1.4 91
2020-01-19 00:00:00 2.5 2 Sudeste 16 Noroeste 0 919.9 1.2 90
2020-01-18 23:00:00 3.1 3 Sudoeste 7 Sudoeste 0 919.4 1.5 89
2020-01-18 22:00:00 3.4 3 Sur 6 Sudoeste 0 919.2 2.1 87
2020-01-18 21:00:00 3 4 Sur 9 Sur 0 918.7 1.9 84
2020-01-18 20:00:00 4 2 Norte 33 Noroeste 0 917.9 1 78
2020-01-18 19:00:00 4.5 21 Noroeste 43 Noroeste 0 917.1 0.8 78
2020-01-18 18:00:00 4.1 6 Norte 39 Noroeste 2.3 916.8 0.1 90
2020-01-18 17:00:00 4.7 26 Noroeste 42 Norte 0.3 916.9 -0.4 81
2020-01-18 16:00:00 9.1 12 Sudeste 24 Sudoeste 0 916.3 -2.7 69
2020-01-18 15:00:00 7.1 16 Sudeste 32 Sur 0 916.7 -4.2 74
2020-01-18 14:00:00 7.6 16 Sur 38 Sur 0 917.3 -5 69
2020-01-18 13:00:00 8.2 10 Sur 44 Sur 0 919 -4.4 69
2020-01-18 12:00:00 5.4 16 Sur 40 Sur 0 920.9 -2.7 77
2020-01-18 11:00:00 4.3 11 Sur 31 Sudeste 0 922.3 -1.5 77
2020-01-18 10:00:00 4.1 15 Sur 33 Sudoeste 0 923.4 -0.8 73
2020-01-18 09:00:00 4.3 13 Oeste 32 Oeste 0 923.6 -1.1 68
2020-01-18 08:00:00 4.7 8 Sur 31 Sudoeste 0 923.8 -1.9 63
2020-01-18 07:00:00 4.5 13 Sur 32 Sudoeste 0 924.2 -2 63
2020-01-18 06:00:00 3.4 18 Sur 32 Sur 0 924.7 -1.6 68
2020-01-18 05:00:00 3.9 19 Sur 28 Sur 0 925.7 -0.9 65
2020-01-18 04:00:00 4.5 12 Sur 23 Oeste 0 926.2 -1.1 62
2020-01-18 03:00:00 5.2 10 Oeste 23 Oeste 0 926.3 -1.6 55
2020-01-18 02:00:00 1.7 3 Sur 17 Oeste 0 926.6 -1.7 88
2020-01-18 01:00:00 2.7 4 Oeste 15 Sudoeste 0 927.3 -1.8 87
2020-01-18 00:00:00 2 3 Sudoeste 13 Sur 0 927.9 -1.3 90
2020-01-17 23:00:00 2.5 8 Sudeste 20 Sudeste 0 928.3 -1.1 88
2020-01-17 22:00:00 1.7 3 Sudeste 6 Sudeste 0 929.1 -0.1 91
2020-01-17 21:00:00 3 4 Sudeste 13 Este 0 929.2 0.4 88
2020-01-17 20:00:00 3.4 6 Este 15 Este 0 929.4 1.5 87
2020-01-17 19:00:00 4 12 Este 19 Nordeste 0 929.2 2 85
2020-01-17 18:00:00 4.5 11 Nordeste 18 Este 0 928.8 2 78
2020-01-17 17:00:00 5 13 Nordeste 24 Nordeste 0 927.9 1 73
2020-01-17 16:00:00 7 14 Nordeste 22 Este 0 927.2 0.5 70
2020-01-17 15:00:00 6.8 12 Este 17 Este 0 926.8 -0.1 73
2020-01-17 14:00:00 5.9 4 Este 15 Este 0 926.9 0.7 76
2020-01-17 13:00:00 5.2 9 Este 17 Nordeste 0 926.7 1.5 84
2020-01-17 12:00:00 5.9 10 Este 17 Este 0 926.9 2.5 83
2020-01-17 11:00:00 4.7 6 Este 14 Este 0 926.2 3.4 92
2020-01-17 10:00:00 4.4 6 Nordeste 13 Este 0 925.2 3.1 95
2020-01-17 09:00:00 2.5 5 Sudeste 17 Nordeste 0 924.4 2.9 93
2020-01-17 08:00:00 4.1 3 Sur 18 Sudoeste 0 922.8 1.9 78
2020-01-17 07:00:00 4.6 6 Sudoeste 15 Sudoeste 0 922.1 0.4 83
2020-01-17 06:00:00 4.8 7 Sudoeste 17 Sudoeste 0 921.5 0.4 83
2020-01-17 05:00:00 5.4 8 Sudoeste 20 Sudoeste 0.1 920.9 0.2 82
2020-01-17 04:00:00 6.2 12 Sudoeste 32 Sudoeste 0.9 921.7 1.6 86
2020-01-17 03:00:00 6.7 15 Sudoeste 38 Sudoeste 0.1 921.1 2 82
2020-01-17 02:00:00 7.2 18 Sudoeste 48 Sudoeste 0 920.7 2 76
2020-01-17 01:00:00 7.5 24 Sudoeste 56 Sudoeste 0 920.1 0.5 76
2020-01-17 00:00:00 7.6 31 Sudoeste 73 Sudoeste 0.1 919.1 -0.9 78
2020-01-16 23:00:00 7.2 32 Sudoeste 67 Sur 0.8 918.7 -0.4 82
2020-01-16 22:00:00 7.2 23 Sudoeste 54 Sudoeste 0.1 919.6 0.6 77
2020-01-16 21:00:00 8.1 16 Sudoeste 73 Sur 0.1 920 2.1 67
2020-01-16 20:00:00 8.8 23 Sudoeste 56 Oeste 0 919.1 0.8 57
2020-01-16 19:00:00 9 19 Sudoeste 56 Sudoeste 0 919 0.5 56
2020-01-16 18:00:00 9.9 10 Sur 78 Sudeste 0 917.9 -0.7 55
2020-01-16 17:00:00 10.4 22 Sur 69 Sur 0 918.3 -0.9 54
2020-01-16 16:00:00 10.8 13 Sur 61 Sudoeste 0 918.5 -2.3 55
2020-01-16 15:00:00 10.7 26 Sudoeste 66 Oeste 0 918.6 -2.7 54
2020-01-16 14:00:00 10.5 19 Sudoeste 74 Sur 0 919.2 -2.6 64
2020-01-16 13:00:00 9 21 Sur 76 Sur 0 920.8 -1 83
2020-01-16 12:00:00 9.8 37 Sudoeste 65 Sudoeste 0 921.3 0.3 76
2020-01-16 11:00:00 9 21 Sudoeste 51 Sudoeste 0 921.8 2.2 82
2020-01-16 10:00:00 8.7 28 Sudoeste 59 Sudoeste 0 921.8 2.1 83
2020-01-16 09:00:00 8.3 37 Sudoeste 72 Sudoeste 0 921 0.6 85
2020-01-16 08:00:00 8.7 38 Sudoeste 65 Sudoeste 0 919.6 -1.8 85
2020-01-16 07:00:00 8.5 30 Sudoeste 64 Sudoeste 0 919.7 -1.9 87
2020-01-16 06:00:00 8.4 25 Sudoeste 48 Sudoeste 0 920.4 -0.5 89
2020-01-16 05:00:00 8.7 24 Sudoeste 44 Sudoeste 0 921.4 -0.1 87
2020-01-16 04:00:00 8.8 21 Sudoeste 60 Sudoeste 0 921.6 0 89
2020-01-16 03:00:00 9.2 28 Sudoeste 53 Sudoeste 0 920.9 -1 84
2020-01-16 02:00:00 8.7 23 Sudoeste 45 Sudoeste 0 921.5 -0.3 86
2020-01-16 01:00:00 9.1 21 Sudoeste 41 Sudoeste 0 921.6 0.1 83
2020-01-16 00:00:00 9.1 6 Sudeste 36 Sudoeste 0 921.9 0.2 74
2020-01-15 23:00:00 8.7 20 Sudoeste 39 Sudoeste 0 921.8 0.4 75
2020-01-15 22:00:00 8.7 15 Sur 33 Sur 0 921.5 0.1 68
2020-01-15 21:00:00 8.3 12 Sudoeste 37 Sur 0 921.7 1.2 71
2020-01-15 20:00:00 8.6 12 Sudoeste 30 Oeste 0 921.4 1.3 74
2020-01-15 19:00:00 8.5 11 Sudoeste 33 Sudoeste 0 921.4 2 74
2020-01-15 18:00:00 8.3 17 Sudoeste 35 Sudoeste 0 920.5 1.7 74
2020-01-15 17:00:00 8.7 13 Sur 39 Sudoeste 0 920.1 1.4 71
2020-01-15 16:00:00 9.8 22 Sudoeste 36 Oeste 0 919.4 0.6 64
2020-01-15 15:00:00 8.9 17 Sudoeste 38 Sudoeste 0.1 918.8 0.7 72
2020-01-15 14:00:00 8.9 10 Sur 23 Sur 0 918.7 0.3 76
2020-01-15 13:00:00 8.3 6 Este 39 Sudoeste 0 918.8 1.6 78
2020-01-15 12:00:00 7.2 11 Sur 46 Sudoeste 0.1 918.1 2.4 85
2020-01-15 11:00:00 7.1 20 Sudoeste 46 Sudoeste 0.6 918.4 3.8 84
2020-01-15 10:00:00 6.9 23 Sudoeste 49 Sudoeste 0.3 917.2 4 86
2020-01-15 09:00:00 6.7 23 Sudoeste 67 Sudoeste 0 915.7 2.6 85
2020-01-15 08:00:00 6.5 33 Sudoeste 70 Sudoeste 0 914.6 1.7 84
2020-01-15 07:00:00 6.4 37 Sudoeste 80 Sur 0 913.2 -0.9 85
2020-01-15 06:00:00 6.6 35 Sudoeste 69 Sudoeste 0.2 913.1 -1.5 85
2020-01-15 05:00:00 6.6 25 Sur 66 Sur 0.3 912.9 -1.8 85
2020-01-15 04:00:00 6.7 24 Sur 72 Sur 0.9 914.1 -0.8 86
2020-01-15 03:00:00 6.7 14 Sudoeste 59 Sur 0.2 914.6 -0.4 84
2020-01-15 02:00:00 6.6 21 Sudoeste 57 Sudoeste 0.3 914.7 -0.6 79
2020-01-15 01:00:00 7 17 Sudoeste 50 Oeste 0 914.9 -0.4 78
2020-01-15 00:00:00 6.3 18 Sudoeste 53 Sudoeste 0.2 915 -0.5 83
2020-01-14 23:00:00 6.1 18 Sur 51 Sudoeste 0.1 915.3 -0.2 82
2020-01-14 22:00:00 6.4 26 Sudoeste 49 Sudoeste 0 915.3 0.3 74
2020-01-14 21:00:00 6.8 28 Sudoeste 57 Sudoeste 0 915.5 0.7 75
2020-01-14 20:00:00 7.1 27 Sudoeste 58 Sudoeste 0 915.5 0.8 72
2020-01-14 19:00:00 6.9 22 Sudoeste 51 Sudoeste 0 915 0.1 71
2020-01-14 18:00:00 7.1 19 Sudoeste 48 Sur 0 914.8 -0.3 71
2020-01-14 17:00:00 7.1 26 Sur 64 Sur 0 914.7 -1.1 69
2020-01-14 16:00:00 7.6 20 Sudoeste 49 Sudoeste 0 914.9 -2.2 68
2020-01-14 15:00:00 7.9 17 Sudoeste 40 Sudoeste 0 915.1 -2.1 63
2020-01-14 14:00:00 8.3 13 Sudoeste 56 Sur 0 915.8 -1.5 62
2020-01-14 13:00:00 5.7 19 Sudoeste 40 Sudoeste 0 917.1 0.1 75
2020-01-14 12:00:00 4.7 18 Sudoeste 39 Sur 0 917.2 2 79
2020-01-14 11:00:00 4.6 21 Sudoeste 48 Sur 0 917.3 1.7 78
2020-01-14 10:00:00 4.4 23 Sur 67 Sur 0 917 1.8 78
2020-01-14 09:00:00 3.9 39 Sur 65 Sudoeste 0 915.2 -0.7 78
2020-01-14 08:00:00 4 23 Sur 49 Sudoeste 0 915.6 0 79
2020-01-14 07:00:00 4.4 32 Sur 58 Sur 0 915.2 -0.6 78
2020-01-14 06:00:00 3.7 19 Sur 51 Sur 0 915.9 0.1 78
2020-01-14 05:00:00 4.2 22 Sur 53 Sur 0 915.6 0 76
2020-01-14 04:00:00 3.2 30 Sur 56 Sur 0 915.8 -1.1 83
2020-01-14 03:00:00 2.8 27 Sur 51 Sur 0 915.8 -1.3 82
2020-01-14 02:00:00 3.2 34 Sur 65 Sudeste 0 915.6 -1.8 77
2020-01-14 01:00:00 3.8 23 Sur 41 Sudeste 0 916.9 -0.7 65
2020-01-14 00:00:00 4.6 14 Sur 52 Sur 0 917.1 -0.8 60
2020-01-13 23:00:00 1.9 26 Sur 48 Sur 0 917.4 -0.2 64
2020-01-13 22:00:00 2.6 28 Sur 44 Sur 0 917.6 0.5 62
2020-01-13 21:00:00 1.2 23 Sur 48 Sur 0 917.9 0.5 64
2020-01-13 20:00:00 4.1 22 Sur 50 Sudoeste 0 917.6 0.3 53
2020-01-13 19:00:00 3.1 20 Sur 40 Sudoeste 0 917.1 -0.6 51
2020-01-13 18:00:00 5.3 31 Sudoeste 49 Sudoeste 0 917.4 -0.8 40
2020-01-13 17:00:00 7.1 30 Oeste 49 Sudoeste 0 917.3 -1.7 38
2020-01-13 16:00:00 7.9 4 Sur 41 Sur 0 917.7 -2.1 42
2020-01-13 15:00:00 5.5 19 Sur 38 Sur 0 918.2 -3.4 43
2020-01-13 14:00:00 6.3 18 Sur 41 Sur 0 919 -2.8 43
2020-01-13 13:00:00 3.7 30 Sur 40 Sur 0 919.8 -2.1 56
2020-01-13 12:00:00 2.4 9 Sur 30 Sur 0 921.6 -0.4 59
2020-01-13 11:00:00 0.6 10 Sur 32 Sur 0 921.8 -0.9 66
2020-01-13 10:00:00 -0.3 3 Noroeste 15 Noroeste 0 921.9 -0.8 70
2020-01-13 09:00:00 -4.1 5 Oeste 11 Noroeste 0 922 -1 91
2020-01-13 08:00:00 -4.9 4 Oeste 10 Oeste 0 922.7 -1.3 91
2020-01-13 07:00:00 -4.7 4 Noroeste 8 Noroeste 0 922.7 -1.9 91
2020-01-13 06:00:00 -3.9 4 Noroeste 9 Oeste 0 923 -1.9 92
2020-01-13 05:00:00 -4.2 5 Oeste 9 Oeste 0 924 -1.5 92
2020-01-13 04:00:00 -4.5 4 Oeste 8 Oeste 0 924.6 -1.2 92
2020-01-13 03:00:00 -3.6 2 Noroeste 8 Oeste 0 924.9 -1.5 92
2020-01-13 02:00:00 -3 2 Oeste 4 Oeste 0 925.5 -1.1 92
2020-01-13 01:00:00 -2.5 0 Calma 9 Noroeste 0 925.8 -1.2 92
2020-01-13 00:00:00 -1.8 0 Calma 8 Oeste 0 926.4 -0.8 92
2020-01-12 23:00:00 -1.8 4 Noroeste 8 Oeste 0 926.6 -0.8 92
2020-01-12 22:00:00 -0.6 2 Norte 4 Oeste 0 927 -0.6 89
2020-01-12 21:00:00 1.7 2 Oeste 8 Oeste 0 927.2 0.1 86
2020-01-12 20:00:00 2.4 4 Sudoeste 9 Oeste 0 927.4 0.1 84
2020-01-12 19:00:00 2.6 3 Sudoeste 7 Sur 0 927.6 0.2 78
2020-01-12 18:00:00 7.3 3 Sur 12 Este 0 927.1 -0.3 66
2020-01-12 17:00:00 9 9 Este 17 Este 0 927.3 -0.6 59
2020-01-12 16:00:00 10.3 12 Este 19 Este 0 927.4 -1.5 55
2020-01-12 15:00:00 10.7 12 Este 17 Este 0 927.4 -2.3 59
2020-01-12 14:00:00 10.1 7 Este 11 Este 0 927.9 -2 59
2020-01-12 13:00:00 8.7 0 Calma 6 Sudeste 0 928.9 -1.1 58
2020-01-12 12:00:00 4.4 2 Sur 8 Sur 0 929.7 0.3 67
2020-01-12 11:00:00 2.1 3 Sudeste 8 Sur 0 929.9 0.5 73
2020-01-12 10:00:00 -2.3 0 Calma 5 Sur 0 930 1 84
2020-01-12 09:00:00 -5.3 3 Oeste 6 Noroeste 0 929.4 0.9 88
2020-01-12 08:00:00 -4.7 0 Calma 8 Oeste 0 929.4 0.6 85
2020-01-12 07:00:00 -4 3 Noroeste 6 Noroeste 0 929 -0.1 86
2020-01-12 06:00:00 -3.9 6 Oeste 9 Oeste 0 928.5 -0.3 87
2020-01-12 05:00:00 -3.7 6 Oeste 9 Oeste 0 928.8 0.4 88
2020-01-12 04:00:00 -3.7 3 Noroeste 7 Oeste 0 929.1 0.3 85
2020-01-12 03:00:00 -2 2 Oeste 12 Oeste 0 928.8 -0.3 77
2020-01-12 02:00:00 -2.8 3 Oeste 8 Noroeste 0 928.4 -0.7 86
2020-01-12 01:00:00 -2.3 5 Oeste 8 Oeste 0 928.8 0.2 84
2020-01-12 00:00:00 -2.5 4 Noroeste 7 Oeste 0 929.1 0.4 88
2020-01-11 23:00:00 -2 3 Noroeste 10 Sudoeste 0 929.1 0.3 87
2020-01-11 22:00:00 -1.7 5 Oeste 7 Oeste 0 928.6 0.2 87
2020-01-11 21:00:00 -0.5 5 Oeste 7 Oeste 0 928.7 1 82
2020-01-11 20:00:00 0.9 4 Oeste 6 Oeste 0 928.8 1.3 83
2020-01-11 19:00:00 2.5 2 Oeste 5 Oeste 0 928.4 0.8 78
2020-01-11 18:00:00 5.3 0 Calma 6 Sudeste 0 927.7 -0.2 63
2020-01-11 17:00:00 8.5 0 Calma 6 Noroeste 0 927.5 -0.9 58
2020-01-11 16:00:00 10.1 0 Calma 8 Nordeste 0 927.6 -1.9 54
2020-01-11 15:00:00 8.3 5 Nordeste 13 Sudeste 0 927.9 -2.6 64
2020-01-11 14:00:00 8.2 4 Sur 10 Sudeste 0 928.4 -2.4 59
2020-01-11 13:00:00 6.4 2 Sudeste 8 Sudeste 0 929.5 -1.3 65
2020-01-11 12:00:00 3.8 5 Sudeste 8 Sudeste 0 930.5 -0.1 72
2020-01-11 11:00:00 1.5 4 Oeste 6 Sur 0 930.8 -0.1 83
2020-01-11 10:00:00 -1.2 4 Sudoeste 11 Oeste 0 930.8 -0.1 89
2020-01-11 09:00:00 -5.1 3 Noroeste 5 Oeste 0 930.6 0.2 92
2020-01-11 08:00:00 -4 0 Calma 3 Norte 0 930.9 0.2 91
2020-01-11 07:00:00 -3.8 2 Noroeste 9 Sudoeste 0 930.9 -0.2 90
2020-01-11 06:00:00 -1.4 7 Sudoeste 11 Oeste 0 930.4 -0.8 88
2020-01-11 05:00:00 -2.5 6 Sudoeste 10 Sudoeste 0 930.7 -0.2 93
2020-01-11 04:00:00 -2.2 4 Sudoeste 7 Sudoeste 0 931.1 -0.3 93
2020-01-11 03:00:00 -1.7 2 Oeste 5 Sudoeste 0 931.2 0.1 92
2020-01-11 02:00:00 -0.9 3 Sur 9 Oeste 0 930.9 -0.3 92
2020-01-11 01:00:00 -0.3 6 Oeste 9 Oeste 0 931.4 0.1 93
2020-01-11 00:00:00 0.7 5 Oeste 13 Noroeste 0 931.1 0 93
2020-01-10 23:00:00 2.2 2 Sudoeste 6 Oeste 0 931.2 0.5 93
2020-01-10 22:00:00 2.4 2 Noroeste 5 Noroeste 0 931.3 1.1 93
2020-01-10 21:00:00 2.3 4 Oeste 10 Sudoeste 0 931.1 1.1 92
2020-01-10 20:00:00 2.4 4 Sur 15 Norte 0 930.7 1.2 92
2020-01-10 19:00:00 2.8 3 Norte 11 Nordeste 0.5 930.2 1.1 93
2020-01-10 18:00:00 3.6 6 Nordeste 19 Noroeste 0.2 930 1.3 91
2020-01-10 17:00:00 4.2 15 Noroeste 23 Noroeste 0 929.5 0.6 84
2020-01-10 16:00:00 4.8 14 Noroeste 29 Noroeste 0.1 929.1 0.1 84
2020-01-10 15:00:00 5.9 16 Noroeste 25 Noroeste 0.1 928.7 -0.4 75
2020-01-10 14:00:00 4.5 16 Noroeste 26 Noroeste 0.1 928.9 0 86
2020-01-10 13:00:00 5.1 15 Noroeste 33 Noroeste 0 929 0.9 84
2020-01-10 12:00:00 4.5 17 Noroeste 35 Norte 0 929.1 1.5 78
2020-01-10 11:00:00 4.2 18 Noroeste 28 Noroeste 0 928.9 1.7 78
2020-01-10 10:00:00 3.8 19 Noroeste 31 Noroeste 0 928.1 1.1 78
2020-01-10 09:00:00 3.3 10 Noroeste 34 Noroeste 0 927.6 1.4 75
2020-01-10 08:00:00 3.3 3 Oeste 16 Noroeste 0 927.2 1.8 74
2020-01-10 07:00:00 3.3 0 Calma 20 Noroeste 0 927 1.4 70
2020-01-10 06:00:00 3.3 13 Noroeste 22 Noroeste 0 926.2 0.8 72
2020-01-10 05:00:00 3 9 Noroeste 22 Noroeste 0 925.4 0.7 78
2020-01-10 04:00:00 0.7 0 Calma 9 Noroeste 0 925.6 0.7 89
2020-01-10 03:00:00 0.8 7 Sur 11 Sudeste 0 925.4 0.9 90
2020-01-10 02:00:00 0.7 2 Nordeste 9 Noroeste 0 924.7 0.6 90
2020-01-10 01:00:00 1 4 Sur 12 Sudoeste 0 924.9 1.5 88
2020-01-10 00:00:00 3.2 0 Calma 11 Oeste 0 924.5 1.7 78
2020-01-09 23:00:00 3.7 5 Norte 27 Norte 0 924.1 1.7 78
2020-01-09 22:00:00 5.4 6 Nordeste 16 Nordeste 0 923.4 1.1 93
2020-01-09 21:00:00 5.2 6 Este 13 Nordeste 0 922.8 0.8 93
2020-01-09 20:00:00 5.5 12 Este 22 Este 0 922.4 1 94
2020-01-09 19:00:00 6 13 Este 21 Sudeste 0 922.3 1.4 91
2020-01-09 18:00:00 5.9 12 Sudeste 24 Este 0 922 2.6 86
2020-01-09 17:00:00 7.5 15 Sudeste 30 Sudeste 0 921.4 1.6 73
2020-01-09 16:00:00 9.9 7 Nordeste 46 Sur 0 920.9 0.4 62
2020-01-09 15:00:00 9.2 33 Sur 48 Sur 0 919.4 -2.3 64
2020-01-09 14:00:00 8.5 32 Sur 49 Sur 0 919.8 -2.6 62
2020-01-09 13:00:00 10.1 20 Sudoeste 42 Sudoeste 0 920.5 -2.8 64
2020-01-09 12:00:00 10.3 8 Sur 17 Sur 0 921.7 -- 67
2020-01-09 11:00:00 7.8 7 Sur 19 Sur 0 922.4 -1.3 78
2020-01-09 10:00:00 1 3 Noroeste 9 Oeste 0 923.3 -0.2 92
2020-01-09 09:00:00 -- 0 Calma 12 Noroeste 0 -- -- --
2020-01-09 08:00:00 0.4 0 Calma 9 Noroeste 0 923.7 -0.2 90
2020-01-09 07:00:00 1.4 0 Calma 9 Noroeste 0 923.5 -1.2 90
2020-01-09 06:00:00 1.9 4 Noroeste 9 Sur 0 924 -1 90
2020-01-09 05:00:00 0.9 5 Noroeste 10 Noroeste 0 923.9 -1.2 93
2020-01-09 04:00:00 0.8 4 Oeste 8 Oeste 0 924.7 -1.2 93
2020-01-09 03:00:00 0.8 2 Noroeste 12 Oeste 0 925 -1.4 93
2020-01-09 02:00:00 0.4 4 Oeste 9 Oeste 0 925.1 -1.8 91
2020-01-09 01:00:00 1.5 0 Calma 6 Oeste 0 925.9 -0.7 90
2020-01-09 00:00:00 1.8 2 Noroeste 6 Sudoeste 0 926.4 -0.1 89
2020-01-08 23:00:00 2.4 0 Calma 6 Noroeste 0 926.9 0.2 88
2020-01-08 22:00:00 2.7 2 Sudoeste 7 Noroeste 0 926.6 -0.3 84
2020-01-08 21:00:00 5 3 Sudoeste 8 Oeste 0 926.5 -0.4 75
2020-01-08 20:00:00 7.1 7 Oeste 9 Oeste 0 926.7 -0.1 70
2020-01-08 19:00:00 5.9 3 Sudoeste 6 Oeste 0 926.9 0.1 70
2020-01-08 18:00:00 9.3 0 Calma 9 Este 0 926.9 0 52
2020-01-08 17:00:00 11.9 8 Este 12 Este 0 926.8 -0.9 46
2020-01-08 16:00:00 14.4 4 Nordeste 7 Nordeste 0 926.8 -1.7 36
2020-01-08 15:00:00 14.6 2 Nordeste 6 Este 0 926.9 -2.5 36
2020-01-08 14:00:00 14 0 Calma 4 Norte 0 927.7 -2.3 37
2020-01-08 13:00:00 12.4 0 Calma 7 Sudeste 0 928.5 -1.5 36
2020-01-08 12:00:00 7.2 4 Sur 6 Sudeste 0 929.4 -0.1 55
2020-01-08 11:00:00 4.6 0 Calma 5 Noroeste 0 930 0.4 73
2020-01-08 10:00:00 1.9 2 Norte 8 Sudeste 0 930 0.6 80
2020-01-08 09:00:00 0 5 Noroeste 7 Noroeste 0 929.5 0.3 86
2020-01-08 08:00:00 -1.1 3 Oeste 6 Oeste 0 929.6 0.3 85
2020-01-08 07:00:00 -1.5 3 Sudoeste 4 Oeste 0 929.4 -0.1 87
2020-01-08 06:00:00 -1.6 0 Calma 5 Oeste 0 929.2 -0.5 87
2020-01-08 05:00:00 -1.5 2 Noroeste 7 Norte 0 929.3 -0.3 85
2020-01-08 04:00:00 -1.1 0 Calma 3 Nordeste 0 929.5 -0.4 84
2020-01-08 03:00:00 -0.5 2 Noroeste 5 Oeste 0 929.7 -0.5 78
2020-01-08 02:00:00 -0.3 0 Calma 9 Oeste 0 929.6 -0.7 78
2020-01-08 01:00:00 0 4 Sudoeste 10 Sudoeste 0 929.9 -0.5 78
2020-01-08 00:00:00 -0.6 3 Sudoeste 6 Sur 0 930.2 0.2 84
2020-01-07 23:00:00 -0.3 2 Oeste 6 Oeste 0 930.3 0.6 82
2020-01-07 22:00:00 0.8 0 Calma 8 Oeste 0 930.4 1.1 78
2020-01-07 21:00:00 1.6 0 Calma 6 Noroeste 0 930 0.8 76
2020-01-07 20:00:00 3.9 0 Calma 10 Sudoeste 0 929.7 0.5 65
2020-01-07 19:00:00 5.1 9 Oeste 11 Oeste 0 929.3 0.4 64
2020-01-07 18:00:00 8 2 Oeste 5 Oeste 0 929.2 0.3 61
2020-01-07 17:00:00 11.6 2 Sudeste 3 Este 0 929.2 -0.4 51
2020-01-07 16:00:00 12.6 2 Este 7 Este 0 928.9 -1.3 48
2020-01-07 15:00:00 12.9 0 Calma 4 Este 0 928.9 -1.8 43
2020-01-07 14:00:00 10.5 0 Calma 11 Nordeste 0 929.6 -1.7 55
2020-01-07 13:00:00 8.3 6 Nordeste 12 Este 0 930.2 -0.7 63
2020-01-07 12:00:00 5.9 3 Nordeste 6 Este 0 930.7 0.3 69
2020-01-07 11:00:00 3 3 Sudeste 5 Sudeste 0 931.3 0.9 82
2020-01-07 10:00:00 -0.2 2 Nordeste 6 Nordeste 0 930.9 0.6 88
2020-01-07 09:00:00 -2.1 2 Oeste 9 Oeste 0 930.4 -0.1 89
2020-01-07 08:00:00 -2.9 0 Calma 7 Oeste 0 930.4 -0.1 90
2020-01-07 07:00:00 -3.2 5 Oeste 6 Oeste 0 930.3 -0.4 91
2020-01-07 06:00:00 -3.1 0 Calma 4 Oeste 0 930.5 0.1 92
2020-01-07 05:00:00 -2.9 2 Noroeste 6 Este 0 930.5 0.1 92
2020-01-07 04:00:00 -2.5 3 Sur 7 Oeste 0 930.7 0.4 93
2020-01-07 03:00:00 -2.5 5 Sudoeste 8 Oeste 0 930.4 0.2 94
2020-01-07 02:00:00 -2.2 0 Calma 5 Sudoeste 0 930.4 0.2 94
2020-01-07 01:00:00 -1.6 0 Calma 7 Noroeste 0 930.3 0.3 94
2020-01-07 00:00:00 0.3 2 Sudoeste 10 Oeste 0 930.2 0.5 94
2020-01-06 23:00:00 1.2 5 Oeste 7 Oeste 0 930.2 0.7 94
2020-01-06 22:00:00 2.5 2 Sudeste 7 Sur 0 930 1.4 94
2020-01-06 21:00:00 0.9 2 Nordeste 9 Sudoeste 0 929.7 1.6 94
2020-01-06 20:00:00 1 4 Sudeste 13 Nordeste 0 929.5 2.7 94
2020-01-06 19:00:00 1.5 0 Calma 9 Sudeste 0 928.6 2.5 91
2020-01-06 18:00:00 4.1 3 Este 9 Este 0 928.1 2.3 78
2020-01-06 17:00:00 7.4 6 Este 9 Este 0 926.8 0.8 58
2020-01-06 16:00:00 8.9 0 Calma 6 Sudeste 0 926.1 -0.9 51
2020-01-06 15:00:00 9.4 3 Sur 6 Sur 0 925.8 -1.6 42
2020-01-06 14:00:00 8.6 0 Calma 6 Noroeste 0 926 -1.5 44
2020-01-06 13:00:00 6.3 2 Sur 7 Sudeste 0 927 -0.5 50
2020-01-06 12:00:00 3.8 0 Calma 9 Sudoeste 0 927.4 0.3 59
2020-01-06 11:00:00 1.7 4 Sudoeste 8 Sudoeste 0 927.5 1 71
2020-01-06 10:00:00 -0.7 5 Sudoeste 9 Sur 0 927.5 1 78